Terminal Aerodrome Forecast
Issued by NWS Sioux Falls, SD

Home | Current Version | Previous Version | Text Only | Print | Product List | Glossary On
Versions: 1 2 3 4 5 6 7 8 9 10 11 12 13 14 15 16 17
000
FTUS43 KFSD 201130
TAFHON
TAF
KHON 201130Z 2012/2112 16008KT P6SM OVC012
     FM202200 16008KT 6SM -DZ OVC015
     FM210500 16006KT 4SM BR OVC008
     FM211000 21004KT 3SM BR OVC010=

USA.gov is the U.S. government's official web portal to all federal, state and local government web resources and services.